sensor_id;sensor_type;location;lat;lon;timestamp;P1;durP1;ratioP1;P2;durP2;ratioP2
26478;SDS011;14163;-26.142;27.992;2022-10-31T00:01:39;8.50;;;7.63;;
26478;SDS011;14163;-26.142;27.992;2022-10-31T00:04:09;7.50;;;6.90;;
26478;SDS011;14163;-26.142;27.992;2022-10-31T00:06:38;7.90;;;7.20;;
26478;SDS011;14163;-26.142;27.992;2022-10-31T00:09:09;9.47;;;7.60;;
26478;SDS011;14163;-26.142;27.992;2022-10-31T00:11:38;7.47;;;6.87;;
26478;SDS011;14163;-26.142;27.992;2022-10-31T00:14:07;9.07;;;7.27;;
26478;SDS011;14163;-26.142;27.992;2022-10-31T00:16:38;8.37;;;7.57;;
26478;SDS011;14163;-26.142;27.992;2022-10-31T00:19:08;7.93;;;7.13;;
26478;SDS011;14163;-26.142;27.992;2022-10-31T00:21:37;8.33;;;7.10;;
26478;SDS011;14163;-26.142;27.992;2022-10-31T00:24:06;7.23;;;6.50;;
26478;SDS011;14163;-26.142;27.992;2022-10-31T00:26:35;7.30;;;6.67;;
26478;SDS011;14163;-26.142;27.992;2022-10-31T00:29:05;7.30;;;6.70;;
26478;SDS011;14163;-26.142;27.992;2022-10-31T00:31:34;7.47;;;6.17;;
26478;SDS011;14163;-26.142;27.992;2022-10-31T00:34:05;7.40;;;6.30;;
26478;SDS011;14163;-26.142;27.992;2022-10-31T00:36:34;7.67;;;7.07;;
26478;SDS011;14163;-26.142;27.992;2022-10-31T00:39:03;8.50;;;7.70;;
26478;SDS011;14163;-26.142;27.992;2022-10-31T00:41:33;12.33;;;6.87;;
26478;SDS011;14163;-26.142;27.992;2022-10-31T00:44:02;8.70;;;6.50;;
26478;SDS011;14163;-26.142;27.992;2022-10-31T00:46:32;7.17;;;6.47;;
26478;SDS011;14163;-26.142;27.992;2022-10-31T00:49:01;9.73;;;6.73;;
26478;SDS011;14163;-26.142;27.992;2022-10-31T00:51:32;13.30;;;7.33;;
26478;SDS011;14163;-26.142;27.992;2022-10-31T00:54:01;7.80;;;6.70;;
26478;SDS011;14163;-26.142;27.992;2022-10-31T00:56:30;13.97;;;7.30;;
26478;SDS011;14163;-26.142;27.992;2022-10-31T00:59:00;8.10;;;7.30;;
26478;SDS011;14163;-26.142;27.992;2022-10-31T01:01:29;12.47;;;7.17;;
26478;SDS011;14163;-26.142;27.992;2022-10-31T01:03:58;9.10;;;8.30;;
26478;SDS011;14163;-26.142;27.992;2022-10-31T01:06:27;10.30;;;8.20;;
26478;SDS011;14163;-26.142;27.992;2022-10-31T01:08:58;9.17;;;7.87;;
26478;SDS011;14163;-26.142;27.992;2022-10-31T01:11:27;10.80;;;8.37;;
26478;SDS011;14163;-26.142;27.992;2022-10-31T01:13:56;8.93;;;8.13;;
26478;SDS011;14163;-26.142;27.992;2022-10-31T01:16:26;12.37;;;8.67;;
26478;SDS011;14163;-26.142;27.992;2022-10-31T01:18:56;10.20;;;8.80;;
26478;SDS011;14163;-26.142;27.992;2022-10-31T01:21:27;9.63;;;8.63;;
26478;SDS011;14163;-26.142;27.992;2022-10-31T01:23:59;9.67;;;8.33;;
26478;SDS011;14163;-26.142;27.992;2022-10-31T01:26:30;9.90;;;8.90;;
26478;SDS011;14163;-26.142;27.992;2022-10-31T01:29:00;10.07;;;8.70;;
26478;SDS011;14163;-26.142;27.992;2022-10-31T01:31:31;8.50;;;7.70;;
26478;SDS011;14163;-26.142;27.992;2022-10-31T01:34:02;9.40;;;7.90;;
26478;SDS011;14163;-26.142;27.992;2022-10-31T01:36:33;9.97;;;8.90;;
26478;SDS011;14163;-26.142;27.992;2022-10-31T01:39:05;9.60;;;8.70;;
26478;SDS011;14163;-26.142;27.992;2022-10-31T01:41:36;8.40;;;7.70;;
26478;SDS011;14163;-26.142;27.992;2022-10-31T01:47:10;8.97;;;7.80;;
26478;SDS011;14163;-26.142;27.992;2022-10-31T01:49:45;9.03;;;8.10;;
26478;SDS011;14163;-26.142;27.992;2022-10-31T01:52:18;9.10;;;7.97;;
26478;SDS011;14163;-26.142;27.992;2022-10-31T01:54:53;9.00;;;8.10;;
26478;SDS011;14163;-26.142;27.992;2022-10-31T01:57:26;8.70;;;7.80;;
26478;SDS011;14163;-26.142;27.992;2022-10-31T01:59:57;10.17;;;9.17;;
26478;SDS011;14163;-26.142;27.992;2022-10-31T02:02:28;9.10;;;8.20;;
26478;SDS011;14163;-26.142;27.992;2022-10-31T02:04:59;8.70;;;8.00;;
26478;SDS011;14163;-26.142;27.992;2022-10-31T02:07:33;8.93;;;7.97;;
26478;SDS011;14163;-26.142;27.992;2022-10-31T02:10:08;9.10;;;8.20;;
26478;SDS011;14163;-26.142;27.992;2022-10-31T02:12:37;10.00;;;8.30;;
26478;SDS011;14163;-26.142;27.992;2022-10-31T02:15:08;9.67;;;8.73;;
26478;SDS011;14163;-26.142;27.992;2022-10-31T02:17:37;10.37;;;9.20;;
26478;SDS011;14163;-26.142;27.992;2022-10-31T02:20:12;12.60;;;9.50;;
26478;SDS011;14163;-26.142;27.992;2022-10-31T02:25:56;8.87;;;8.03;;
26478;SDS011;14163;-26.142;27.992;2022-10-31T02:28:40;9.33;;;8.50;;
26478;SDS011;14163;-26.142;27.992;2022-10-31T02:31:27;9.37;;;8.47;;
26478;SDS011;14163;-26.142;27.992;2022-10-31T02:34:08;9.00;;;8.10;;
26478;SDS011;14163;-26.142;27.992;2022-10-31T02:36:42;9.80;;;8.90;;
26478;SDS011;14163;-26.142;27.992;2022-10-31T02:39:22;9.37;;;8.00;;
26478;SDS011;14163;-26.142;27.992;2022-10-31T02:41:57;9.00;;;8.20;;
26478;SDS011;14163;-26.142;27.992;2022-10-31T02:44:36;9.90;;;9.07;;
26478;SDS011;14163;-26.142;27.992;2022-10-31T02:47:13;10.20;;;8.50;;
26478;SDS011;14163;-26.142;27.992;2022-10-31T02:49:44;9.10;;;8.10;;
26478;SDS011;14163;-26.142;27.992;2022-10-31T02:52:18;9.70;;;8.80;;
26478;SDS011;14163;-26.142;27.992;2022-10-31T02:54:48;8.93;;;8.03;;
26478;SDS011;14163;-26.142;27.992;2022-10-31T02:57:19;10.40;;;9.37;;
26478;SDS011;14163;-26.142;27.992;2022-10-31T02:59:52;10.50;;;9.00;;
26478;SDS011;14163;-26.142;27.992;2022-10-31T04:13:32;15.50;;;11.83;;
26478;SDS011;14163;-26.142;27.992;2022-10-31T04:16:05;14.27;;;11.67;;
26478;SDS011;14163;-26.142;27.992;2022-10-31T04:18:36;15.50;;;13.97;;
26478;SDS011;14163;-26.142;27.992;2022-10-31T04:21:05;14.90;;;12.43;;
26478;SDS011;14163;-26.142;27.992;2022-10-31T04:23:35;14.47;;;13.00;;
26478;SDS011;14163;-26.142;27.992;2022-10-31T04:26:07;12.83;;;11.53;;
26478;SDS011;14163;-26.142;27.992;2022-10-31T04:28:39;13.53;;;12.10;;
26478;SDS011;14163;-26.142;27.992;2022-10-31T04:31:08;13.50;;;11.30;;
26478;SDS011;14163;-26.142;27.992;2022-10-31T04:33:38;13.87;;;12.40;;
26478;SDS011;14163;-26.142;27.992;2022-10-31T04:36:08;14.30;;;12.83;;
26478;SDS011;14163;-26.142;27.992;2022-10-31T04:38:37;12.63;;;11.27;;
26478;SDS011;14163;-26.142;27.992;2022-10-31T04:41:08;13.27;;;12.03;;
26478;SDS011;14163;-26.142;27.992;2022-10-31T04:43:37;12.07;;;10.83;;
26478;SDS011;14163;-26.142;27.992;2022-10-31T04:46:06;11.50;;;10.33;;
26478;SDS011;14163;-26.142;27.992;2022-10-31T04:48:35;11.40;;;9.03;;
26478;SDS011;14163;-26.142;27.992;2022-10-31T04:51:05;11.23;;;9.37;;
26478;SDS011;14163;-26.142;27.992;2022-10-31T04:53:34;12.73;;;9.60;;
26478;SDS011;14163;-26.142;27.992;2022-10-31T04:56:03;9.47;;;8.73;;
26478;SDS011;14163;-26.142;27.992;2022-10-31T04:58:34;9.60;;;8.63;;
26478;SDS011;14163;-26.142;27.992;2022-10-31T05:01:03;9.13;;;8.20;;
26478;SDS011;14163;-26.142;27.992;2022-10-31T05:03:32;10.20;;;8.50;;
26478;SDS011;14163;-26.142;27.992;2022-10-31T05:06:02;11.20;;;9.37;;
26478;SDS011;14163;-26.142;27.992;2022-10-31T05:08:31;12.00;;;8.30;;
26478;SDS011;14163;-26.142;27.992;2022-10-31T05:11:00;10.57;;;8.70;;
26478;SDS011;14163;-26.142;27.992;2022-10-31T05:13:30;13.47;;;9.67;;
26478;SDS011;14163;-26.142;27.992;2022-10-31T05:16:01;12.80;;;10.30;;
26478;SDS011;14163;-26.142;27.992;2022-10-31T05:18:30;9.83;;;8.50;;
26478;SDS011;14163;-26.142;27.992;2022-10-31T05:20:59;9.37;;;8.40;;
26478;SDS011;14163;-26.142;27.992;2022-10-31T05:23:28;10.63;;;8.20;;
26478;SDS011;14163;-26.142;27.992;2022-10-31T05:25:57;9.20;;;8.33;;
26478;SDS011;14163;-26.142;27.992;2022-10-31T05:28:26;8.83;;;8.03;;
26478;SDS011;14163;-26.142;27.992;2022-10-31T05:30:55;10.47;;;8.30;;
26478;SDS011;14163;-26.142;27.992;2022-10-31T05:33:26;10.00;;;7.87;;
26478;SDS011;14163;-26.142;27.992;2022-10-31T05:35:55;10.67;;;8.97;;
26478;SDS011;14163;-26.142;27.992;2022-10-31T05:38:24;10.90;;;9.20;;
26478;SDS011;14163;-26.142;27.992;2022-10-31T05:40:54;9.63;;;7.00;;
26478;SDS011;14163;-26.142;27.992;2022-10-31T05:43:25;7.53;;;6.83;;
26478;SDS011;14163;-26.142;27.992;2022-10-31T05:45:54;8.10;;;7.30;;
26478;SDS011;14163;-26.142;27.992;2022-10-31T05:48:24;9.43;;;8.43;;
26478;SDS011;14163;-26.142;27.992;2022-10-31T05:50:55;11.00;;;8.30;;
26478;SDS011;14163;-26.142;27.992;2022-10-31T05:53:24;11.93;;;8.50;;
26478;SDS011;14163;-26.142;27.992;2022-10-31T05:55:53;17.93;;;9.60;;
26478;SDS011;14163;-26.142;27.992;2022-10-31T05:58:22;12.37;;;9.10;;
26478;SDS011;14163;-26.142;27.992;2022-10-31T06:00:51;10.13;;;9.03;;
26478;SDS011;14163;-26.142;27.992;2022-10-31T06:03:21;9.70;;;8.90;;
26478;SDS011;14163;-26.142;27.992;2022-10-31T06:05:52;12.40;;;9.57;;
26478;SDS011;14163;-26.142;27.992;2022-10-31T06:08:21;9.57;;;8.77;;
26478;SDS011;14163;-26.142;27.992;2022-10-31T06:10:50;9.43;;;8.63;;
26478;SDS011;14163;-26.142;27.992;2022-10-31T06:13:20;9.70;;;8.70;;
26478;SDS011;14163;-26.142;27.992;2022-10-31T06:15:49;9.70;;;8.63;;
26478;SDS011;14163;-26.142;27.992;2022-10-31T06:18:18;9.10;;;8.20;;
26478;SDS011;14163;-26.142;27.992;2022-10-31T06:20:47;9.40;;;8.50;;
26478;SDS011;14163;-26.142;27.992;2022-10-31T06:23:18;12.67;;;10.10;;
26478;SDS011;14163;-26.142;27.992;2022-10-31T06:25:48;12.20;;;9.53;;
26478;SDS011;14163;-26.142;27.992;2022-10-31T06:28:17;18.00;;;10.97;;
26478;SDS011;14163;-26.142;27.992;2022-10-31T06:30:47;13.13;;;10.53;;
26478;SDS011;14163;-26.142;27.992;2022-10-31T06:33:16;20.30;;;12.10;;
26478;SDS011;14163;-26.142;27.992;2022-10-31T06:35:45;13.23;;;11.37;;
26478;SDS011;14163;-26.142;27.992;2022-10-31T06:38:15;16.30;;;11.93;;
26478;SDS011;14163;-26.142;27.992;2022-10-31T06:40:45;18.00;;;11.47;;
26478;SDS011;14163;-26.142;27.992;2022-10-31T06:43:15;13.80;;;10.00;;
26478;SDS011;14163;-26.142;27.992;2022-10-31T06:45:44;10.10;;;8.83;;
26478;SDS011;14163;-26.142;27.992;2022-10-31T06:48:13;10.90;;;8.90;;
26478;SDS011;14163;-26.142;27.992;2022-10-31T06:50:42;10.70;;;8.87;;
26478;SDS011;14163;-26.142;27.992;2022-10-31T06:53:11;11.70;;;7.80;;
26478;SDS011;14163;-26.142;27.992;2022-10-31T06:55:41;10.80;;;7.73;;
26478;SDS011;14163;-26.142;27.992;2022-10-31T06:58:12;11.80;;;8.20;;
26478;SDS011;14163;-26.142;27.992;2022-10-31T07:00:41;8.70;;;7.80;;
26478;SDS011;14163;-26.142;27.992;2022-10-31T07:03:11;10.40;;;8.43;;
26478;SDS011;14163;-26.142;27.992;2022-10-31T07:05:41;9.30;;;8.27;;
26478;SDS011;14163;-26.142;27.992;2022-10-31T07:08:11;13.50;;;8.90;;
26478;SDS011;14163;-26.142;27.992;2022-10-31T07:10:41;9.20;;;8.30;;
26478;SDS011;14163;-26.142;27.992;2022-10-31T07:13:20;11.20;;;9.20;;
26478;SDS011;14163;-26.142;27.992;2022-10-31T07:15:51;13.03;;;10.77;;
26478;SDS011;14163;-26.142;27.992;2022-10-31T07:18:21;9.43;;;8.63;;
26478;SDS011;14163;-26.142;27.992;2022-10-31T07:20:51;10.20;;;9.20;;
26478;SDS011;14163;-26.142;27.992;2022-10-31T07:23:20;11.03;;;9.67;;
26478;SDS011;14163;-26.142;27.992;2022-10-31T07:25:54;9.77;;;8.77;;
26478;SDS011;14163;-26.142;27.992;2022-10-31T07:28:25;11.50;;;10.30;;
26478;SDS011;14163;-26.142;27.992;2022-10-31T07:30:56;11.90;;;9.27;;
26478;SDS011;14163;-26.142;27.992;2022-10-31T07:33:26;10.33;;;9.07;;
26478;SDS011;14163;-26.142;27.992;2022-10-31T07:35:55;12.60;;;9.97;;
26478;SDS011;14163;-26.142;27.992;2022-10-31T07:38:24;11.73;;;9.50;;
26478;SDS011;14163;-26.142;27.992;2022-10-31T07:40:53;10.83;;;9.27;;
26478;SDS011;14163;-26.142;27.992;2022-10-31T07:43:22;11.90;;;9.30;;
26478;SDS011;14163;-26.142;27.992;2022-10-31T07:45:53;9.10;;;7.90;;
26478;SDS011;14163;-26.142;27.992;2022-10-31T07:48:23;10.10;;;9.00;;
26478;SDS011;14163;-26.142;27.992;2022-10-31T07:50:52;9.37;;;8.40;;
26478;SDS011;14163;-26.142;27.992;2022-10-31T07:53:22;8.43;;;7.37;;
26478;SDS011;14163;-26.142;27.992;2022-10-31T07:55:51;10.83;;;8.87;;
26478;SDS011;14163;-26.142;27.992;2022-10-31T07:58:20;10.07;;;8.20;;
26478;SDS011;14163;-26.142;27.992;2022-10-31T08:00:52;10.70;;;7.87;;
26478;SDS011;14163;-26.142;27.992;2022-10-31T08:03:21;8.90;;;8.00;;
26478;SDS011;14163;-26.142;27.992;2022-10-31T08:05:50;9.87;;;8.73;;
26478;SDS011;14163;-26.142;27.992;2022-10-31T08:08:19;9.53;;;8.47;;
26478;SDS011;14163;-26.142;27.992;2022-10-31T08:10:49;9.33;;;8.40;;
26478;SDS011;14163;-26.142;27.992;2022-10-31T08:13:19;9.30;;;8.43;;
26478;SDS011;14163;-26.142;27.992;2022-10-31T08:15:48;13.90;;;8.53;;
26478;SDS011;14163;-26.142;27.992;2022-10-31T08:18:21;10.10;;;9.10;;
26478;SDS011;14163;-26.142;27.992;2022-10-31T08:20:50;8.83;;;7.93;;
26478;SDS011;14163;-26.142;27.992;2022-10-31T08:23:21;11.80;;;8.63;;
26478;SDS011;14163;-26.142;27.992;2022-10-31T08:25:50;10.10;;;9.10;;
26478;SDS011;14163;-26.142;27.992;2022-10-31T08:28:19;9.60;;;8.70;;
26478;SDS011;14163;-26.142;27.992;2022-10-31T08:30:48;8.73;;;7.50;;
26478;SDS011;14163;-26.142;27.992;2022-10-31T08:33:17;10.90;;;9.40;;
26478;SDS011;14163;-26.142;27.992;2022-10-31T08:35:48;10.50;;;9.40;;
26478;SDS011;14163;-26.142;27.992;2022-10-31T08:38:17;8.00;;;7.20;;
26478;SDS011;14163;-26.142;27.992;2022-10-31T08:40:48;8.90;;;8.00;;
26478;SDS011;14163;-26.142;27.992;2022-10-31T08:43:17;9.30;;;8.17;;
26478;SDS011;14163;-26.142;27.992;2022-10-31T08:45:48;9.67;;;8.20;;
26478;SDS011;14163;-26.142;27.992;2022-10-31T08:48:21;8.60;;;7.50;;
26478;SDS011;14163;-26.142;27.992;2022-10-31T08:50:50;8.57;;;7.77;;
26478;SDS011;14163;-26.142;27.992;2022-10-31T08:53:24;8.40;;;7.67;;
26478;SDS011;14163;-26.142;27.992;2022-10-31T08:55:54;9.50;;;8.47;;
26478;SDS011;14163;-26.142;27.992;2022-10-31T08:58:23;10.33;;;8.70;;
26478;SDS011;14163;-26.142;27.992;2022-10-31T09:00:53;10.43;;;7.50;;
26478;SDS011;14163;-26.142;27.992;2022-10-31T09:03:25;8.70;;;7.73;;
26478;SDS011;14163;-26.142;27.992;2022-10-31T09:05:56;10.47;;;7.47;;
26478;SDS011;14163;-26.142;27.992;2022-10-31T09:08:26;9.87;;;7.10;;
26478;SDS011;14163;-26.142;27.992;2022-10-31T09:10:56;7.07;;;6.47;;
26478;SDS011;14163;-26.142;27.992;2022-10-31T09:13:26;8.20;;;7.27;;
26478;SDS011;14163;-26.142;27.992;2022-10-31T09:15:56;8.07;;;7.00;;
26478;SDS011;14163;-26.142;27.992;2022-10-31T09:18:27;7.43;;;6.40;;
26478;SDS011;14163;-26.142;27.992;2022-10-31T09:20:57;9.97;;;7.53;;
26478;SDS011;14163;-26.142;27.992;2022-10-31T09:23:27;11.90;;;7.57;;
26478;SDS011;14163;-26.142;27.992;2022-10-31T09:25:58;7.80;;;7.20;;
26478;SDS011;14163;-26.142;27.992;2022-10-31T09:28:28;8.33;;;7.17;;
26478;SDS011;14163;-26.142;27.992;2022-10-31T09:30:57;7.30;;;6.80;;
26478;SDS011;14163;-26.142;27.992;2022-10-31T09:33:28;9.43;;;6.90;;
26478;SDS011;14163;-26.142;27.992;2022-10-31T09:35:58;9.80;;;7.60;;
26478;SDS011;14163;-26.142;27.992;2022-10-31T09:38:27;8.00;;;7.00;;
26478;SDS011;14163;-26.142;27.992;2022-10-31T09:41:00;7.60;;;6.90;;
26478;SDS011;14163;-26.142;27.992;2022-10-31T09:43:37;7.97;;;7.10;;
26478;SDS011;14163;-26.142;27.992;2022-10-31T09:46:12;8.80;;;7.90;;
26478;SDS011;14163;-26.142;27.992;2022-10-31T09:48:53;9.37;;;7.30;;
26478;SDS011;14163;-26.142;27.992;2022-10-31T09:51:34;7.00;;;6.40;;
26478;SDS011;14163;-26.142;27.992;2022-10-31T09:54:06;6.43;;;5.93;;
26478;SDS011;14163;-26.142;27.992;2022-10-31T09:56:40;7.53;;;6.80;;
26478;SDS011;14163;-26.142;27.992;2022-10-31T09:59:11;7.20;;;6.60;;
26478;SDS011;14163;-26.142;27.992;2022-10-31T10:01:47;7.83;;;7.13;;
26478;SDS011;14163;-26.142;27.992;2022-10-31T10:07:16;7.40;;;6.80;;
26478;SDS011;14163;-26.142;27.992;2022-10-31T10:09:53;7.03;;;6.30;;
26478;SDS011;14163;-26.142;27.992;2022-10-31T10:12:24;7.23;;;6.63;;
26478;SDS011;14163;-26.142;27.992;2022-10-31T10:15:13;7.40;;;6.63;;
26478;SDS011;14163;-26.142;27.992;2022-10-31T10:17:58;8.57;;;7.83;;
26478;SDS011;14163;-26.142;27.992;2022-10-31T10:20:37;10.53;;;8.73;;
26478;SDS011;14163;-26.142;27.992;2022-10-31T10:26:03;9.47;;;8.53;;
26478;SDS011;14163;-26.142;27.992;2022-10-31T10:28:38;10.03;;;9.23;;
26478;SDS011;14163;-26.142;27.992;2022-10-31T10:31:12;10.47;;;9.47;;
26478;SDS011;14163;-26.142;27.992;2022-10-31T10:33:52;11.07;;;9.10;;
26478;SDS011;14163;-26.142;27.992;2022-10-31T10:36:32;9.03;;;8.17;;
26478;SDS011;14163;-26.142;27.992;2022-10-31T10:39:08;11.67;;;9.20;;
26478;SDS011;14163;-26.142;27.992;2022-10-31T10:41:44;9.40;;;8.50;;
26478;SDS011;14163;-26.142;27.992;2022-10-31T10:44:29;9.70;;;8.67;;
26478;SDS011;14163;-26.142;27.992;2022-10-31T10:47:15;9.73;;;8.73;;
26478;SDS011;14163;-26.142;27.992;2022-10-31T10:50:01;8.97;;;8.17;;
26478;SDS011;14163;-26.142;27.992;2022-10-31T10:52:37;8.80;;;7.90;;
26478;SDS011;14163;-26.142;27.992;2022-10-31T10:55:14;8.53;;;7.73;;
26478;SDS011;14163;-26.142;27.992;2022-10-31T10:57:55;8.03;;;7.33;;
26478;SDS011;14163;-26.142;27.992;2022-10-31T11:00:29;8.00;;;7.33;;
26478;SDS011;14163;-26.142;27.992;2022-10-31T11:03:00;8.50;;;7.70;;
26478;SDS011;14163;-26.142;27.992;2022-10-31T11:05:35;8.67;;;7.87;;
26478;SDS011;14163;-26.142;27.992;2022-10-31T11:08:08;11.80;;;8.30;;
26478;SDS011;14163;-26.142;27.992;2022-10-31T11:10:37;10.13;;;7.80;;
26478;SDS011;14163;-26.142;27.992;2022-10-31T11:13:20;12.33;;;9.20;;
26478;SDS011;14163;-26.142;27.992;2022-10-31T11:15:54;9.23;;;7.90;;
26478;SDS011;14163;-26.142;27.992;2022-10-31T11:18:26;8.03;;;7.33;;
26478;SDS011;14163;-26.142;27.992;2022-10-31T11:20:58;8.83;;;8.03;;
26478;SDS011;14163;-26.142;27.992;2022-10-31T11:23:31;8.37;;;7.57;;
26478;SDS011;14163;-26.142;27.992;2022-10-31T11:26:01;9.50;;;7.57;;
26478;SDS011;14163;-26.142;27.992;2022-10-31T11:28:31;12.40;;;7.80;;
26478;SDS011;14163;-26.142;27.992;2022-10-31T11:31:05;7.70;;;7.00;;
26478;SDS011;14163;-26.142;27.992;2022-10-31T11:33:36;8.90;;;8.10;;
26478;SDS011;14163;-26.142;27.992;2022-10-31T11:36:14;8.13;;;7.53;;
26478;SDS011;14163;-26.142;27.992;2022-10-31T11:38:48;8.33;;;7.63;;
26478;SDS011;14163;-26.142;27.992;2022-10-31T11:41:17;11.50;;;9.40;;
26478;SDS011;14163;-26.142;27.992;2022-10-31T11:43:53;8.60;;;7.57;;
26478;SDS011;14163;-26.142;27.992;2022-10-31T11:46:25;7.93;;;7.33;;
26478;SDS011;14163;-26.142;27.992;2022-10-31T11:49:01;7.80;;;7.10;;
26478;SDS011;14163;-26.142;27.992;2022-10-31T11:51:32;8.07;;;7.37;;
26478;SDS011;14163;-26.142;27.992;2022-10-31T11:54:04;8.27;;;7.57;;
26478;SDS011;14163;-26.142;27.992;2022-10-31T11:56:46;8.13;;;7.47;;
26478;SDS011;14163;-26.142;27.992;2022-10-31T11:59:17;9.03;;;7.27;;
26478;SDS011;14163;-26.142;27.992;2022-10-31T12:01:50;15.10;;;8.70;;
26478;SDS011;14163;-26.142;27.992;2022-10-31T12:04:23;7.90;;;7.17;;
26478;SDS011;14163;-26.142;27.992;2022-10-31T12:07:03;11.10;;;8.13;;
26478;SDS011;14163;-26.142;27.992;2022-10-31T12:09:35;7.03;;;6.50;;
26478;SDS011;14163;-26.142;27.992;2022-10-31T12:12:10;7.00;;;6.40;;
26478;SDS011;14163;-26.142;27.992;2022-10-31T12:14:51;7.57;;;6.87;;
26478;SDS011;14163;-26.142;27.992;2022-10-31T12:17:31;17.07;;;8.20;;
26478;SDS011;14163;-26.142;27.992;2022-10-31T12:20:07;16.20;;;7.80;;
26478;SDS011;14163;-26.142;27.992;2022-10-31T12:22:51;11.73;;;6.43;;
26478;SDS011;14163;-26.142;27.992;2022-10-31T12:25:33;12.37;;;7.80;;
26478;SDS011;14163;-26.142;27.992;2022-10-31T12:28:14;13.50;;;8.73;;
26478;SDS011;14163;-26.142;27.992;2022-10-31T12:31:08;13.57;;;8.37;;
26478;SDS011;14163;-26.142;27.992;2022-10-31T12:33:53;9.03;;;7.77;;
26478;SDS011;14163;-26.142;27.992;2022-10-31T12:39:25;11.00;;;8.10;;
26478;SDS011;14163;-26.142;27.992;2022-10-31T12:42:05;12.83;;;8.10;;
26478;SDS011;14163;-26.142;27.992;2022-10-31T12:44:51;8.00;;;7.20;;
26478;SDS011;14163;-26.142;27.992;2022-10-31T12:47:39;10.70;;;7.60;;
26478;SDS011;14163;-26.142;27.992;2022-10-31T12:50:21;6.87;;;6.10;;
26478;SDS011;14163;-26.142;27.992;2022-10-31T12:52:58;7.43;;;6.43;;
26478;SDS011;14163;-26.142;27.992;2022-10-31T12:55:40;9.73;;;6.97;;
26478;SDS011;14163;-26.142;27.992;2022-10-31T12:58:20;8.10;;;7.30;;
26478;SDS011;14163;-26.142;27.992;2022-10-31T13:00:56;8.77;;;6.73;;
26478;SDS011;14163;-26.142;27.992;2022-10-31T13:03:36;13.43;;;8.70;;
26478;SDS011;14163;-26.142;27.992;2022-10-31T13:06:13;9.20;;;6.73;;
26478;SDS011;14163;-26.142;27.992;2022-10-31T13:08:47;7.10;;;6.30;;
26478;SDS011;14163;-26.142;27.992;2022-10-31T13:11:20;7.53;;;6.80;;
26478;SDS011;14163;-26.142;27.992;2022-10-31T13:13:56;10.60;;;8.00;;
26478;SDS011;14163;-26.142;27.992;2022-10-31T13:16:32;10.73;;;8.20;;
26478;SDS011;14163;-26.142;27.992;2022-10-31T13:19:07;8.53;;;7.67;;
26478;SDS011;14163;-26.142;27.992;2022-10-31T13:21:44;9.77;;;8.77;;
26478;SDS011;14163;-26.142;27.992;2022-10-31T13:24:23;11.83;;;8.83;;
26478;SDS011;14163;-26.142;27.992;2022-10-31T13:26:57;8.03;;;7.27;;
26478;SDS011;14163;-26.142;27.992;2022-10-31T13:29:30;27.03;;;8.60;;
26478;SDS011;14163;-26.142;27.992;2022-10-31T13:32:04;10.63;;;7.80;;
26478;SDS011;14163;-26.142;27.992;2022-10-31T13:34:34;7.40;;;6.67;;
26478;SDS011;14163;-26.142;27.992;2022-10-31T13:37:12;7.90;;;7.20;;
26478;SDS011;14163;-26.142;27.992;2022-10-31T13:39:54;7.60;;;6.57;;
26478;SDS011;14163;-26.142;27.992;2022-10-31T13:42:37;8.67;;;7.67;;
26478;SDS011;14163;-26.142;27.992;2022-10-31T13:45:15;9.30;;;6.83;;
26478;SDS011;14163;-26.142;27.992;2022-10-31T13:47:54;6.10;;;5.50;;
26478;SDS011;14163;-26.142;27.992;2022-10-31T13:50:25;7.00;;;5.33;;
26478;SDS011;14163;-26.142;27.992;2022-10-31T13:53:11;7.23;;;5.23;;
26478;SDS011;14163;-26.142;27.992;2022-10-31T13:55:42;7.83;;;6.47;;
26478;SDS011;14163;-26.142;27.992;2022-10-31T14:01:04;8.63;;;4.97;;
26478;SDS011;14163;-26.142;27.992;2022-10-31T14:03:44;6.17;;;4.90;;
26478;SDS011;14163;-26.142;27.992;2022-10-31T14:06:23;8.03;;;6.40;;
26478;SDS011;14163;-26.142;27.992;2022-10-31T14:09:05;5.63;;;5.13;;
26478;SDS011;14163;-26.142;27.992;2022-10-31T14:11:44;5.60;;;5.10;;
26478;SDS011;14163;-26.142;27.992;2022-10-31T14:14:15;6.03;;;5.10;;
26478;SDS011;14163;-26.142;27.992;2022-10-31T14:16:52;5.60;;;5.10;;
26478;SDS011;14163;-26.142;27.992;2022-10-31T14:19:23;6.13;;;4.83;;
26478;SDS011;14163;-26.142;27.992;2022-10-31T14:21:53;4.83;;;4.43;;
26478;SDS011;14163;-26.142;27.992;2022-10-31T14:30:12;4.20;;;3.90;;
26478;SDS011;14163;-26.142;27.992;2022-10-31T14:32:47;3.83;;;3.63;;
26478;SDS011;14163;-26.142;27.992;2022-10-31T14:35:20;4.50;;;4.20;;
26478;SDS011;14163;-26.142;27.992;2022-10-31T14:41:05;5.00;;;4.50;;
26478;SDS011;14163;-26.142;27.992;2022-10-31T14:43:49;4.93;;;4.50;;
26478;SDS011;14163;-26.142;27.992;2022-10-31T14:46:36;4.80;;;4.40;;
26478;SDS011;14163;-26.142;27.992;2022-10-31T14:49:16;11.23;;;4.93;;
26478;SDS011;14163;-26.142;27.992;2022-10-31T14:51:54;5.50;;;4.33;;
26478;SDS011;14163;-26.142;27.992;2022-10-31T14:54:25;5.00;;;4.50;;
26478;SDS011;14163;-26.142;27.992;2022-10-31T14:56:58;4.50;;;4.20;;
26478;SDS011;14163;-26.142;27.992;2022-10-31T14:59:32;4.43;;;4.03;;
26478;SDS011;14163;-26.142;27.992;2022-10-31T15:02:08;4.27;;;3.97;;
26478;SDS011;14163;-26.142;27.992;2022-10-31T15:04:44;4.63;;;4.23;;
26478;SDS011;14163;-26.142;27.992;2022-10-31T15:07:16;5.07;;;4.67;;
26478;SDS011;14163;-26.142;27.992;2022-10-31T15:09:55;6.53;;;5.93;;
26478;SDS011;14163;-26.142;27.992;2022-10-31T15:12:25;9.67;;;5.80;;
26478;SDS011;14163;-26.142;27.992;2022-10-31T15:14:55;6.00;;;5.60;;
26478;SDS011;14163;-26.142;27.992;2022-10-31T15:17:25;9.17;;;8.27;;
26478;SDS011;14163;-26.142;27.992;2022-10-31T15:19:57;11.10;;;7.20;;
26478;SDS011;14163;-26.142;27.992;2022-10-31T15:22:26;7.50;;;6.80;;
26478;SDS011;14163;-26.142;27.992;2022-10-31T15:24:58;6.27;;;5.70;;
26478;SDS011;14163;-26.142;27.992;2022-10-31T15:27:27;7.00;;;5.00;;
26478;SDS011;14163;-26.142;27.992;2022-10-31T15:29:57;4.83;;;4.10;;
26478;SDS011;14163;-26.142;27.992;2022-10-31T15:32:26;5.50;;;4.50;;
26478;SDS011;14163;-26.142;27.992;2022-10-31T15:34:58;5.50;;;5.10;;
26478;SDS011;14163;-26.142;27.992;2022-10-31T15:37:28;6.83;;;6.13;;
26478;SDS011;14163;-26.142;27.992;2022-10-31T15:40:05;5.40;;;4.90;;
26478;SDS011;14163;-26.142;27.992;2022-10-31T15:42:39;5.13;;;4.73;;
26478;SDS011;14163;-26.142;27.992;2022-10-31T15:45:16;5.10;;;4.70;;
26478;SDS011;14163;-26.142;27.992;2022-10-31T15:47:52;4.90;;;4.43;;
26478;SDS011;14163;-26.142;27.992;2022-10-31T15:50:27;5.00;;;4.60;;
26478;SDS011;14163;-26.142;27.992;2022-10-31T15:52:59;6.50;;;4.37;;
26478;SDS011;14163;-26.142;27.992;2022-10-31T15:55:29;4.33;;;4.03;;
26478;SDS011;14163;-26.142;27.992;2022-10-31T15:58:01;4.97;;;4.57;;
26478;SDS011;14163;-26.142;27.992;2022-10-31T16:00:34;5.77;;;4.90;;
26478;SDS011;14163;-26.142;27.992;2022-10-31T16:03:05;5.60;;;5.07;;
26478;SDS011;14163;-26.142;27.992;2022-10-31T16:05:38;5.60;;;5.10;;
26478;SDS011;14163;-26.142;27.992;2022-10-31T16:08:32;6.10;;;5.20;;
26478;SDS011;14163;-26.142;27.992;2022-10-31T16:11:15;9.57;;;6.93;;
26478;SDS011;14163;-26.142;27.992;2022-10-31T16:13:53;10.33;;;7.80;;
26478;SDS011;14163;-26.142;27.992;2022-10-31T16:16:25;8.23;;;7.30;;
26478;SDS011;14163;-26.142;27.992;2022-10-31T16:18:55;7.43;;;6.53;;
26478;SDS011;14163;-26.142;27.992;2022-10-31T16:21:28;5.73;;;5.20;;
26478;SDS011;14163;-26.142;27.992;2022-10-31T16:24:00;6.10;;;5.53;;
26478;SDS011;14163;-26.142;27.992;2022-10-31T16:26:33;6.93;;;5.73;;